createdAt,value
2023-04-19T00:00:14.907Z,14.74
2023-04-19T00:02:43.409Z,14.61
2023-04-19T00:05:11.982Z,14.79
2023-04-19T00:07:41.322Z,14.71
2023-04-19T00:10:10.203Z,14.89
2023-04-19T00:12:38.043Z,14.78
2023-04-19T00:15:06.832Z,14.68
2023-04-19T00:17:34.859Z,14.95
2023-04-19T00:20:03.074Z,14.39
2023-04-19T00:22:30.879Z,14.45
2023-04-19T00:24:59.965Z,14.53
2023-04-19T00:27:27.641Z,14.47
2023-04-19T00:29:55.317Z,13.82
2023-04-19T00:32:23.025Z,14.51
2023-04-19T00:34:50.774Z,14.73
2023-04-19T00:37:18.552Z,14.38
2023-04-19T00:39:46.233Z,14.46
2023-04-19T00:42:15.704Z,14.15
2023-04-19T00:44:43.537Z,14.28
2023-04-19T00:47:11.231Z,13.96
2023-04-19T00:49:38.973Z,14.72
2023-04-19T00:52:06.915Z,14.14
2023-04-19T00:54:34.728Z,14.34
2023-04-19T00:57:03.025Z,14.23
2023-04-19T00:59:32.171Z,14.36
2023-04-19T01:01:59.947Z,14.29
2023-04-19T01:04:28.161Z,14.46
2023-04-19T01:06:56.069Z,14.12
2023-04-19T01:09:23.717Z,14.41
2023-04-19T01:11:51.976Z,14.13
2023-04-19T01:14:19.614Z,14.63
2023-04-19T01:16:49.130Z,14.78
2023-04-19T01:19:16.809Z,14.54
2023-04-19T01:21:44.612Z,14.95
2023-04-19T01:24:14.072Z,15.32
2023-04-19T01:26:41.970Z,14.07
2023-04-19T01:29:09.664Z,15.15
2023-04-19T01:31:37.371Z,14.67
2023-04-19T01:34:05.648Z,15.41
2023-04-19T01:36:33.344Z,15.25
2023-04-19T01:39:01.308Z,14.95
2023-04-19T01:41:31.042Z,15.18
2023-04-19T01:43:58.762Z,15.14
2023-04-19T01:46:26.468Z,15.27
2023-04-19T01:48:54.174Z,14.88
2023-04-19T01:51:22.282Z,15.10
2023-04-19T01:53:52.475Z,14.62
2023-04-19T01:56:20.284Z,14.93
2023-04-19T01:58:49.493Z,14.87
2023-04-19T02:01:17.219Z,15.06
2023-04-19T02:03:45.221Z,15.00
2023-04-19T02:06:13.544Z,14.94
2023-04-19T02:08:41.341Z,14.40
2023-04-19T02:11:09.786Z,14.68
2023-04-19T02:13:37.524Z,15.13
2023-04-19T02:16:07.515Z,14.97
2023-04-19T02:18:38.454Z,14.94
2023-04-19T02:21:06.943Z,14.50
2023-04-19T02:23:35.482Z,14.70
2023-04-19T02:26:03.778Z,14.73
2023-04-19T02:28:31.726Z,14.28
2023-04-19T02:30:59.497Z,14.57
2023-04-19T02:33:29.175Z,14.55
2023-04-19T02:35:56.879Z,14.89
2023-04-19T02:38:24.704Z,14.10
2023-04-19T02:40:52.421Z,15.19
2023-04-19T02:43:20.121Z,14.78
2023-04-19T02:45:47.914Z,14.85
2023-04-19T02:48:15.650Z,14.62
2023-04-19T02:50:44.729Z,14.92
2023-04-19T02:53:12.445Z,14.50
2023-04-19T02:55:40.678Z,14.20
2023-04-19T02:58:08.644Z,14.58
2023-04-19T03:03:46.191Z,15.06
2023-04-19T03:06:16.935Z,14.67
2023-04-19T03:08:45.067Z,15.02
2023-04-19T03:11:13.348Z,14.46
2023-04-19T03:13:41.110Z,14.47
2023-04-19T03:16:09.811Z,14.72
2023-04-19T03:18:37.685Z,14.37
2023-04-19T03:21:05.678Z,14.12
2023-04-19T03:23:34.772Z,14.86
2023-04-19T03:26:02.491Z,14.38
2023-04-19T03:28:30.263Z,14.66
2023-04-19T03:30:58.073Z,14.61
2023-04-19T03:33:25.779Z,14.76
2023-04-19T03:35:53.483Z,14.35
2023-04-19T03:38:21.172Z,14.22
2023-04-19T03:40:50.290Z,14.30
2023-04-19T03:43:18.531Z,14.69
2023-04-19T03:45:46.237Z,14.69
2023-04-19T03:48:13.926Z,14.31
2023-04-19T03:50:41.750Z,14.52
2023-04-19T03:53:10.366Z,13.98
2023-04-19T03:55:38.297Z,14.26
2023-04-19T03:58:07.364Z,14.57
2023-04-19T04:00:35.084Z,14.50
2023-04-19T04:03:02.916Z,14.43
2023-04-19T04:05:31.502Z,13.96
2023-04-19T04:07:59.311Z,14.35
2023-04-19T04:10:27.130Z,14.07
2023-04-19T04:12:55.225Z,13.41
2023-04-19T04:15:24.338Z,13.11
2023-04-19T04:17:52.312Z,13.47
2023-04-19T04:20:20.359Z,13.61
2023-04-19T04:22:48.090Z,13.52
2023-04-19T04:25:16.682Z,13.49
2023-04-19T04:27:45.064Z,13.06
2023-04-19T04:30:13.294Z,13.21
2023-04-19T04:32:43.461Z,12.81
2023-04-19T04:35:12.277Z,13.20
2023-04-19T04:37:40.271Z,12.67
2023-04-19T04:40:09.858Z,12.38
2023-04-19T04:42:38.252Z,12.54
2023-04-19T04:45:07.133Z,12.47
2023-04-19T04:47:35.785Z,12.24
2023-04-19T04:50:06.083Z,12.37
2023-04-19T04:52:34.089Z,12.36
2023-04-19T04:55:01.847Z,12.60
2023-04-19T04:57:29.618Z,12.45
2023-04-19T04:59:57.597Z,12.79
2023-04-19T05:02:25.736Z,12.56
2023-04-19T05:04:53.528Z,12.78
2023-04-19T05:07:22.822Z,12.72
2023-04-19T05:09:50.597Z,12.62
2023-04-19T05:12:18.303Z,12.79
2023-04-19T05:14:46.038Z,12.81
2023-04-19T05:17:13.719Z,12.69
2023-04-19T05:19:41.491Z,12.83
2023-04-19T05:22:09.282Z,13.27
2023-04-19T05:24:39.305Z,13.23
2023-04-19T05:27:08.336Z,12.65
2023-04-19T05:29:36.096Z,13.13
2023-04-19T05:32:03.787Z,12.95
2023-04-19T05:34:31.565Z,11.66
2023-04-19T05:36:59.262Z,12.43
2023-04-19T05:39:27.334Z,12.27
2023-04-19T05:41:56.488Z,12.80
2023-04-19T05:44:24.196Z,12.14
2023-04-19T05:46:51.918Z,12.26
2023-04-19T05:49:19.658Z,12.39
2023-04-19T05:51:47.441Z,11.95
2023-04-19T05:54:15.430Z,11.90
2023-04-19T05:56:43.625Z,11.38
2023-04-19T05:59:14.104Z,11.98
2023-04-19T06:01:42.229Z,11.79
2023-04-19T06:04:10.460Z,11.77
2023-04-19T06:06:38.772Z,12.25
2023-04-19T06:09:07.171Z,12.43
2023-04-19T06:11:49.467Z,12.65
2023-04-19T06:14:20.215Z,12.52
2023-04-19T06:16:48.070Z,12.32
2023-04-19T06:19:16.031Z,12.60
2023-04-19T06:21:43.741Z,13.00
2023-04-19T06:24:11.657Z,12.11
2023-04-19T06:26:39.391Z,12.31
2023-04-19T06:29:07.501Z,12.42
2023-04-19T06:31:36.691Z,12.50
2023-04-19T06:34:04.545Z,12.51
2023-04-19T06:36:32.603Z,12.76
2023-04-19T06:39:00.524Z,13.47
2023-04-19T06:41:28.262Z,13.33
2023-04-19T06:43:56.231Z,13.04
2023-04-19T06:46:23.963Z,13.06
2023-04-19T06:48:53.150Z,13.91
2023-04-19T06:51:20.864Z,13.61
2023-04-19T06:53:54.850Z,13.83
2023-04-19T06:56:40.847Z,13.34
2023-04-19T06:59:08.666Z,13.43
2023-04-19T07:01:36.588Z,13.90
2023-04-19T07:04:06.033Z,13.86
2023-04-19T07:06:33.990Z,14.04
2023-04-19T07:09:01.697Z,13.82
2023-04-19T07:16:57.380Z,13.66
2023-04-19T07:19:28.264Z,13.56
2023-04-19T07:21:57.961Z,13.48
2023-04-19T07:27:47.195Z,14.31
2023-04-19T07:30:40.226Z,13.99
2023-04-19T07:42:31.016Z,14.95
2023-04-19T07:48:01.971Z,15.34
2023-04-19T07:50:32.166Z,15.24
2023-04-19T07:53:10.201Z,15.25
2023-04-19T07:55:39.833Z,14.51
2023-04-19T07:58:07.551Z,15.60
2023-04-19T08:00:54.776Z,15.02
2023-04-19T08:09:00.966Z,15.57
2023-04-19T08:15:19.585Z,15.27
2023-04-19T08:20:38.899Z,15.42
2023-04-19T08:23:20.496Z,15.77
2023-04-19T08:28:32.393Z,15.58
2023-04-19T08:33:43.438Z,15.71
2023-04-19T08:36:11.668Z,16.21
2023-04-19T08:38:44.562Z,15.23
2023-04-19T08:41:14.759Z,15.00
2023-04-19T08:43:44.802Z,15.54
2023-04-19T08:46:14.495Z,15.24
2023-04-19T08:48:42.316Z,15.22
2023-04-19T08:51:11.976Z,15.99
2023-04-19T08:53:40.521Z,15.26
2023-04-19T08:56:20.650Z,15.57
2023-04-19T08:59:01.052Z,15.63
2023-04-19T09:01:44.485Z,15.85
2023-04-19T09:06:43.673Z,15.53
2023-04-19T09:11:50.966Z,16.45
2023-04-19T09:14:20.174Z,16.27
2023-04-19T09:16:51.956Z,16.81
2023-04-19T09:19:24.947Z,16.65
2023-04-19T09:21:54.846Z,15.85
2023-04-19T09:27:11.980Z,16.87
2023-04-19T09:29:39.870Z,16.85
2023-04-19T09:32:09.160Z,16.45
2023-04-19T09:34:37.039Z,16.79
2023-04-19T09:37:22.846Z,16.19
2023-04-19T09:40:03.109Z,16.94
2023-04-19T09:43:04.318Z,17.33
2023-04-19T09:45:44.050Z,17.82
2023-04-19T09:48:14.656Z,18.21
2023-04-19T09:50:58.514Z,16.68
2023-04-19T09:53:29.940Z,16.96
2023-04-19T09:56:01.910Z,17.30
2023-04-19T10:01:13.511Z,16.89
2023-04-19T10:03:44.762Z,16.80
2023-04-19T10:06:26.974Z,16.45
2023-04-19T10:09:03.364Z,18.17
2023-04-19T10:11:37.256Z,17.81
2023-04-19T10:14:07.226Z,16.94
2023-04-19T10:16:35.707Z,17.05
2023-04-19T10:19:08.702Z,17.47
2023-04-19T10:21:38.723Z,18.06
2023-04-19T10:24:07.478Z,17.94
2023-04-19T10:27:08.810Z,16.86
2023-04-19T10:29:58.938Z,16.65
2023-04-19T10:32:28.942Z,17.30
2023-04-19T10:35:02.802Z,17.96
2023-04-19T10:37:33.744Z,18.65
2023-04-19T10:40:01.523Z,18.03
2023-04-19T10:43:02.798Z,18.42
2023-04-19T10:45:34.152Z,18.98
2023-04-19T10:48:04.277Z,17.95
2023-04-19T10:50:59.382Z,17.88
2023-04-19T10:53:50.849Z,17.41
2023-04-19T10:56:19.870Z,17.86
2023-04-19T11:00:04.753Z,19.03
2023-04-19T11:02:38.777Z,19.19
2023-04-19T11:05:09.317Z,18.42
2023-04-19T11:07:42.722Z,20.08
2023-04-19T11:10:11.809Z,19.86
2023-04-19T11:12:43.489Z,19.03
2023-04-19T11:15:12.082Z,18.32
2023-04-19T11:17:39.891Z,20.07
2023-04-19T11:20:10.022Z,19.00
2023-04-19T11:22:39.227Z,18.51
2023-04-19T11:25:10.085Z,18.84
2023-04-19T11:27:37.989Z,19.95
2023-04-19T11:30:06.860Z,18.72
2023-04-19T11:32:34.923Z,19.46
2023-04-19T11:35:07.686Z,19.74
2023-04-19T11:37:36.468Z,20.59
2023-04-19T11:40:06.483Z,20.78
2023-04-19T11:42:35.885Z,20.99
2023-04-19T11:45:05.196Z,20.48
2023-04-19T11:47:35.368Z,19.32
2023-04-19T11:50:34.324Z,19.83
2023-04-19T11:53:11.559Z,20.62
2023-04-19T11:55:39.495Z,19.77
2023-04-19T11:58:10.675Z,20.15
2023-04-19T12:00:38.607Z,21.16
2023-04-19T12:03:06.686Z,20.88
2023-04-19T12:05:34.937Z,20.99
2023-04-19T12:08:04.010Z,20.02
2023-04-19T12:10:32.226Z,20.11
2023-04-19T12:13:00.054Z,20.32
2023-04-19T12:18:19.962Z,19.86
2023-04-19T12:20:49.504Z,20.04
2023-04-19T12:23:18.515Z,20.76
2023-04-19T12:25:47.518Z,21.08
2023-04-19T12:28:16.400Z,21.70
2023-04-19T12:30:44.759Z,21.78
2023-04-19T12:33:12.646Z,20.56
2023-04-19T12:35:42.946Z,20.43
2023-04-19T12:38:13.886Z,20.78
2023-04-19T12:40:41.773Z,22.52
2023-04-19T12:43:09.561Z,22.74
2023-04-19T12:45:37.679Z,23.64
2023-04-19T12:48:07.238Z,22.21
2023-04-19T12:50:35.392Z,22.02
2023-04-19T12:53:04.522Z,21.63
2023-04-19T12:55:32.254Z,20.36
2023-04-19T12:58:00.177Z,22.41
2023-04-19T13:00:28.107Z,22.45
2023-04-19T13:02:56.536Z,21.94
2023-04-19T13:05:24.988Z,22.18
2023-04-19T13:07:53.048Z,22.92
2023-04-19T13:10:22.585Z,23.04
2023-04-19T13:12:50.702Z,22.72
2023-04-19T13:15:18.473Z,22.44
2023-04-19T13:17:46.618Z,22.24
2023-04-19T13:20:14.411Z,24.89
2023-04-19T13:22:42.516Z,23.59
2023-04-19T13:25:11.152Z,20.50
2023-04-19T13:27:40.729Z,23.49
2023-04-19T13:30:10.069Z,23.71
2023-04-19T13:32:37.909Z,22.26
2023-04-19T13:35:06.292Z,22.65
2023-04-19T13:37:34.099Z,24.42
2023-04-19T13:40:17.531Z,24.45
2023-04-19T13:42:47.884Z,24.11
2023-04-19T13:45:15.878Z,22.64
2023-04-19T13:47:43.661Z,23.68
2023-04-19T13:50:13.021Z,24.50
2023-04-19T13:52:42.330Z,25.00
2023-04-19T13:55:10.927Z,24.40
2023-04-19T13:57:38.830Z,24.42
2023-04-19T14:00:09.636Z,23.25
2023-04-19T14:02:37.965Z,22.32
2023-04-19T14:05:07.023Z,23.79
2023-04-19T14:07:34.982Z,25.47
2023-04-19T14:10:02.759Z,23.91
2023-04-19T14:12:30.738Z,22.67
2023-04-19T14:14:58.961Z,23.26
2023-04-19T14:17:28.149Z,20.83
2023-04-19T14:19:56.552Z,22.36
2023-04-19T14:22:24.337Z,22.27
2023-04-19T14:24:52.190Z,24.83
2023-04-19T14:27:29.184Z,23.04
2023-04-19T14:29:58.965Z,22.19
2023-04-19T14:32:28.397Z,22.29
2023-04-19T14:34:56.913Z,21.43
2023-04-19T14:37:34.402Z,22.13
2023-04-19T14:40:02.195Z,23.69
2023-04-19T14:42:30.103Z,24.33
2023-04-19T14:44:58.900Z,24.56
2023-04-19T14:47:28.218Z,24.41
2023-04-19T14:49:56.148Z,25.31
2023-04-19T14:52:24.497Z,25.52
2023-04-19T14:54:52.552Z,23.62
2023-04-19T14:57:20.402Z,22.89
2023-04-19T14:59:48.169Z,23.84
2023-04-19T15:02:16.668Z,21.07
2023-04-19T15:04:46.073Z,18.80
2023-04-19T15:07:14.138Z,18.80
2023-04-19T15:09:41.810Z,20.69
2023-04-19T15:12:09.713Z,22.82
2023-04-19T15:14:37.740Z,26.00
2023-04-19T15:17:06.014Z,22.89
2023-04-19T15:19:33.962Z,24.01
2023-04-19T15:22:04.186Z,22.96
2023-04-19T15:24:32.036Z,24.64
2023-04-19T15:27:00.224Z,23.28
2023-04-19T15:29:28.314Z,25.38
2023-04-19T15:31:56.241Z,27.22
2023-04-19T15:34:25.575Z,22.56
2023-04-19T15:36:53.518Z,20.06
2023-04-19T15:39:22.668Z,19.53
2023-04-19T15:41:50.736Z,20.42
2023-04-19T15:44:18.459Z,23.82
2023-04-19T15:46:46.439Z,25.56
2023-04-19T15:49:14.395Z,25.75
2023-04-19T15:51:42.524Z,24.47
2023-04-19T15:54:11.425Z,24.02
2023-04-19T15:56:41.149Z,25.20
2023-04-19T15:59:09.115Z,22.34
2023-04-19T16:01:38.610Z,22.64
2023-04-19T16:04:06.644Z,23.37
2023-04-19T16:06:34.720Z,24.02
2023-04-19T16:09:02.539Z,22.53
2023-04-19T16:11:30.929Z,23.48
2023-04-19T16:14:00.589Z,23.34
2023-04-19T16:16:31.613Z,25.13
2023-04-19T16:18:59.375Z,24.21
2023-04-19T16:21:28.928Z,22.37
2023-04-19T16:23:57.229Z,21.82
2023-04-19T16:26:25.377Z,22.37
2023-04-19T16:28:53.121Z,21.60
2023-04-19T16:31:22.340Z,23.58
2023-04-19T16:33:50.095Z,18.94
2023-04-19T16:36:17.854Z,17.55
2023-04-19T16:38:45.830Z,16.94
2023-04-19T16:41:13.558Z,17.44
2023-04-19T16:43:41.252Z,19.48
2023-04-19T16:46:09.307Z,19.61
2023-04-19T16:48:38.840Z,19.80
2023-04-19T16:51:06.960Z,20.23
2023-04-19T16:53:35.069Z,19.47
2023-04-19T16:56:03.983Z,19.26
2023-04-19T16:58:32.072Z,18.54
2023-04-19T17:01:02.079Z,19.45
2023-04-19T17:03:30.880Z,19.30
2023-04-19T17:06:00.669Z,17.91
2023-04-19T17:08:28.992Z,18.31
2023-04-19T17:10:57.301Z,18.26
2023-04-19T17:13:25.344Z,18.83
2023-04-19T17:15:54.036Z,17.65
2023-04-19T17:18:22.480Z,16.73
2023-04-19T17:20:50.478Z,17.43
2023-04-19T17:23:19.764Z,17.04
2023-04-19T17:25:47.969Z,17.18
2023-04-19T17:28:16.464Z,16.48
2023-04-19T17:30:44.215Z,16.72
2023-04-19T17:33:12.137Z,16.73
2023-04-19T17:35:40.099Z,16.92
2023-04-19T17:38:08.015Z,16.75
2023-04-19T17:40:37.914Z,16.52
2023-04-19T17:43:06.038Z,16.36
2023-04-19T17:45:37.479Z,16.42
2023-04-19T17:48:05.936Z,16.21
2023-04-19T17:50:33.801Z,16.52
2023-04-19T17:53:01.787Z,16.08
2023-04-19T17:55:29.751Z,16.24
2023-04-19T17:57:59.694Z,16.11
2023-04-19T18:00:27.494Z,16.24
2023-04-19T18:02:55.438Z,15.87
2023-04-19T18:05:24.000Z,16.23
2023-04-19T18:07:51.729Z,15.77
2023-04-19T18:10:19.547Z,15.69
2023-04-19T18:12:47.259Z,15.69
2023-04-19T18:15:16.527Z,15.95
2023-04-19T18:17:44.440Z,15.59
2023-04-19T18:20:13.866Z,15.43
2023-04-19T18:22:41.977Z,14.97
2023-04-19T18:25:10.930Z,14.88
2023-04-19T18:27:38.908Z,14.84
2023-04-19T18:30:07.818Z,14.65
2023-04-19T18:32:37.314Z,14.80
2023-04-19T18:35:05.853Z,15.04
2023-04-19T18:37:33.873Z,15.23
2023-04-19T18:40:23.530Z,15.11
2023-04-19T18:42:51.523Z,14.94
2023-04-19T18:45:19.253Z,15.10
2023-04-19T18:47:48.586Z,14.61
2023-04-19T18:50:19.190Z,14.21
2023-04-19T18:52:47.168Z,14.38
2023-04-19T18:55:16.083Z,14.44
2023-04-19T18:57:44.052Z,14.45
2023-04-19T19:00:13.047Z,13.95
2023-04-19T19:02:41.684Z,13.93
2023-04-19T19:05:13.846Z,14.19
2023-04-19T19:07:42.127Z,14.45
2023-04-19T19:12:43.049Z,13.87
2023-04-19T19:15:11.932Z,14.27
2023-04-19T19:17:40.133Z,14.04
2023-04-19T19:20:09.682Z,13.69
2023-04-19T19:22:39.184Z,13.46
2023-04-19T19:25:08.001Z,13.58
2023-04-19T19:27:35.895Z,13.75
2023-04-19T19:30:03.880Z,13.62
2023-04-19T19:32:32.593Z,13.79
2023-04-19T19:35:04.803Z,13.71
2023-04-19T19:37:34.171Z,13.84
2023-04-19T19:40:05.264Z,13.77
2023-04-19T19:42:33.919Z,13.78
2023-04-19T19:45:02.176Z,13.58
2023-04-19T19:47:31.608Z,13.76
2023-04-19T19:52:31.900Z,13.21
2023-04-19T19:55:00.169Z,13.86
2023-04-19T19:58:18.551Z,13.23
2023-04-19T20:05:21.049Z,12.86
2023-04-19T20:08:00.938Z,13.73
2023-04-19T20:10:30.839Z,13.66
2023-04-19T20:13:01.489Z,13.62
2023-04-19T20:15:30.283Z,13.07
2023-04-19T20:17:58.479Z,13.70
2023-04-19T20:20:26.299Z,13.71
2023-04-19T20:22:56.496Z,13.01
2023-04-19T20:25:24.214Z,13.39
2023-04-19T20:27:51.925Z,13.45
2023-04-19T20:30:21.217Z,13.07
2023-04-19T20:32:50.312Z,14.06
2023-04-19T20:38:58.964Z,13.55
2023-04-19T20:41:27.085Z,13.29
2023-04-19T20:43:59.994Z,13.16
2023-04-19T20:46:29.488Z,13.79
2023-04-19T20:48:57.667Z,13.33
2023-04-19T20:51:27.225Z,13.05
2023-04-19T20:56:43.662Z,13.34
2023-04-19T20:59:11.680Z,13.64
2023-04-19T21:01:41.589Z,13.74
2023-04-19T21:04:09.429Z,13.51
2023-04-19T21:06:37.171Z,12.92
2023-04-19T21:09:05.157Z,13.48
2023-04-19T21:11:33.338Z,13.31
2023-04-19T21:14:01.139Z,13.10
2023-04-19T21:16:28.969Z,12.75
2023-04-19T21:18:58.112Z,13.13
2023-04-19T21:21:26.342Z,13.04
2023-04-19T21:23:54.024Z,13.18
2023-04-19T21:35:10.893Z,12.39
2023-04-19T21:37:38.647Z,12.40
2023-04-19T21:40:07.620Z,12.72
2023-04-19T21:42:35.628Z,12.65
2023-04-19T21:45:03.470Z,12.02
2023-04-19T21:47:31.937Z,12.60
2023-04-19T21:49:59.871Z,12.77
2023-04-19T21:52:29.022Z,12.39
2023-04-19T21:54:56.872Z,12.23
2023-04-19T21:57:25.959Z,12.68
2023-04-19T21:59:53.723Z,12.98
2023-04-19T22:02:21.469Z,12.09
2023-04-19T22:04:49.899Z,11.87
2023-04-19T22:07:18.775Z,11.94
2023-04-19T22:09:47.946Z,12.26
2023-04-19T22:12:15.672Z,12.16
2023-04-19T22:14:43.689Z,11.98
2023-04-19T22:17:12.533Z,11.52
2023-04-19T22:19:40.404Z,12.30
2023-04-19T22:22:08.227Z,11.88
2023-04-19T22:24:43.941Z,12.48
2023-04-19T22:27:22.745Z,12.36
2023-04-19T22:29:50.515Z,11.69
2023-04-19T22:32:18.446Z,12.36
2023-04-19T22:34:46.250Z,11.77
2023-04-19T22:37:14.088Z,12.41
2023-04-19T22:39:41.881Z,12.05
2023-04-19T22:42:09.619Z,12.34
2023-04-19T22:44:38.692Z,12.78
2023-04-19T22:47:06.484Z,12.78
2023-04-19T22:49:35.170Z,12.27
2023-04-19T22:52:02.961Z,11.72
2023-04-19T22:54:31.167Z,12.04
2023-04-19T22:56:58.883Z,12.24
2023-04-19T22:59:26.604Z,12.02
2023-04-19T23:01:55.972Z,12.38
2023-04-19T23:04:24.124Z,11.67
2023-04-19T23:06:52.673Z,12.18
2023-04-19T23:09:20.428Z,12.01
2023-04-19T23:11:48.936Z,11.80
2023-04-19T23:14:18.450Z,11.63
2023-04-19T23:16:46.551Z,12.17
2023-04-19T23:19:16.600Z,12.31
2023-04-19T23:21:44.983Z,12.05
2023-04-19T23:24:12.947Z,12.29
2023-04-19T23:26:40.629Z,11.90
2023-04-19T23:29:08.447Z,12.55
2023-04-19T23:31:39.251Z,11.72
2023-04-19T23:34:07.238Z,12.60
2023-04-19T23:36:36.708Z,12.72
2023-04-19T23:39:05.046Z,11.76
2023-04-19T23:41:32.866Z,12.64
2023-04-19T23:44:00.604Z,11.69
2023-04-19T23:46:28.380Z,12.33
2023-04-19T23:48:56.177Z,12.58
2023-04-19T23:51:23.906Z,12.40
2023-04-19T23:53:53.158Z,12.51
2023-04-19T23:56:21.202Z,12.65
2023-04-19T23:58:48.885Z,12.93
